createdAt,value
2022-10-07T00:00:16.894Z,8.12
2022-10-07T00:02:45.418Z,8.12
2022-10-07T00:05:15.608Z,7.98
2022-10-07T00:07:44.365Z,7.98
2022-10-07T00:10:13.720Z,7.96
2022-10-07T00:12:42.880Z,8.03
2022-10-07T00:15:12.709Z,8.03
2022-10-07T00:17:42.575Z,7.93
2022-10-07T00:20:11.509Z,7.92
2022-10-07T00:22:42.126Z,7.92
2022-10-07T00:25:11.422Z,7.92
2022-10-07T00:27:39.856Z,7.87
2022-10-07T00:30:10.760Z,7.85
2022-10-07T00:32:39.181Z,7.84
2022-10-07T00:35:09.552Z,7.80
2022-10-07T00:37:43.218Z,7.78
2022-10-07T00:40:16.681Z,7.77
2022-10-07T00:42:45.182Z,7.77
2022-10-07T00:45:17.464Z,7.62
2022-10-07T00:47:50.030Z,7.64
2022-10-07T00:50:27.391Z,7.62
2022-10-07T00:53:01.621Z,7.57
2022-10-07T00:55:35.358Z,7.55
2022-10-07T00:58:09.470Z,7.50
2022-10-07T01:00:38.383Z,7.49
2022-10-07T01:03:07.070Z,7.52
2022-10-07T01:05:35.992Z,7.51
2022-10-07T01:08:06.155Z,7.45
2022-10-07T01:10:56.249Z,7.42
2022-10-07T01:13:34.718Z,7.39
2022-10-07T01:16:14.804Z,7.39
2022-10-07T01:18:54.793Z,7.40
2022-10-07T01:21:40.183Z,7.39
2022-10-07T01:24:33.347Z,7.29
2022-10-07T01:27:07.185Z,7.30
2022-10-07T01:29:41.593Z,7.30
2022-10-07T01:32:18.101Z,7.26
2022-10-07T01:34:52.241Z,7.24
2022-10-07T01:37:27.780Z,7.24
2022-10-07T01:40:06.163Z,7.21
2022-10-07T01:42:37.564Z,7.17
2022-10-07T01:45:11.368Z,7.14
2022-10-07T01:47:41.598Z,7.10
2022-10-07T01:50:14.663Z,7.12
2022-10-07T01:53:03.665Z,7.11
2022-10-07T01:55:52.830Z,7.11
2022-10-07T01:58:46.495Z,7.07
2022-10-07T02:01:24.839Z,7.03
2022-10-07T02:04:23.572Z,7.00
2022-10-07T02:07:03.878Z,7.00
2022-10-07T02:09:39.116Z,7.02
2022-10-07T02:12:16.687Z,7.01
2022-10-07T02:14:55.088Z,6.96
2022-10-07T02:17:28.602Z,6.99
2022-10-07T02:19:59.797Z,6.93
2022-10-07T02:22:33.005Z,6.86
2022-10-07T02:25:02.519Z,6.84
2022-10-07T02:27:38.393Z,6.81
2022-10-07T02:30:16.715Z,6.77
2022-10-07T02:32:53.394Z,6.68
2022-10-07T02:35:30.589Z,6.58
2022-10-07T02:38:06.820Z,6.61
2022-10-07T02:40:43.120Z,6.60
2022-10-07T02:43:29.838Z,6.61
2022-10-07T02:46:08.993Z,6.62
2022-10-07T02:48:46.176Z,6.66
2022-10-07T02:51:28.156Z,6.68
2022-10-07T02:53:59.849Z,6.66
2022-10-07T02:56:29.980Z,6.61
2022-10-07T02:59:01.516Z,6.63
2022-10-07T03:01:40.628Z,6.62
2022-10-07T03:04:09.725Z,6.59
2022-10-07T03:06:38.759Z,6.53
2022-10-07T03:09:07.908Z,6.47
2022-10-07T03:11:39.311Z,6.47
2022-10-07T03:14:08.196Z,6.47
2022-10-07T03:16:39.728Z,6.40
2022-10-07T03:19:08.150Z,6.33
2022-10-07T03:21:36.572Z,6.36
2022-10-07T03:24:06.453Z,6.34
2022-10-07T03:26:37.176Z,6.35
2022-10-07T03:29:07.290Z,6.34
2022-10-07T03:31:38.176Z,6.33
2022-10-07T03:34:14.169Z,6.27
2022-10-07T03:36:42.842Z,6.28
2022-10-07T03:39:11.292Z,6.29
2022-10-07T03:41:40.464Z,6.28
2022-10-07T03:44:08.942Z,6.25
2022-10-07T03:46:39.713Z,6.24
2022-10-07T03:49:08.541Z,6.22
2022-10-07T03:51:37.202Z,6.13
2022-10-07T03:54:06.737Z,6.17
2022-10-07T03:56:35.490Z,6.14
2022-10-07T03:59:04.073Z,6.15
2022-10-07T04:01:32.829Z,6.12
2022-10-07T04:04:03.304Z,6.06
2022-10-07T04:06:33.049Z,6.10
2022-10-07T04:09:03.555Z,6.10
2022-10-07T04:11:32.768Z,6.12
2022-10-07T04:14:02.764Z,6.01
2022-10-07T04:16:37.945Z,5.97
2022-10-07T04:19:08.145Z,5.99
2022-10-07T04:21:36.638Z,6.02
2022-10-07T04:24:06.599Z,5.91
2022-10-07T04:26:36.513Z,5.84
2022-10-07T04:29:04.955Z,5.84
2022-10-07T04:31:33.556Z,5.83
2022-10-07T04:34:02.668Z,5.83
2022-10-07T04:36:33.801Z,5.83
2022-10-07T04:39:02.299Z,5.77
2022-10-07T04:41:31.366Z,5.62
2022-10-07T04:44:01.038Z,5.66
2022-10-07T04:46:29.515Z,5.55
2022-10-07T04:48:58.796Z,5.49
2022-10-07T04:51:27.450Z,5.47
2022-10-07T04:53:58.077Z,5.45
2022-10-07T04:56:28.406Z,5.42
2022-10-07T04:58:57.410Z,5.49
2022-10-07T05:01:26.591Z,5.49
2022-10-07T05:03:55.236Z,5.41
2022-10-07T05:06:24.930Z,5.38
2022-10-07T05:08:54.355Z,5.38
2022-10-07T05:11:26.056Z,5.37
2022-10-07T05:13:54.813Z,5.30
2022-10-07T05:16:23.390Z,5.28
2022-10-07T05:18:52.422Z,5.24
2022-10-07T05:21:21.642Z,5.22
2022-10-07T05:23:51.177Z,5.21
2022-10-07T05:26:20.299Z,5.18
2022-10-07T05:28:50.107Z,5.17
2022-10-07T05:31:18.646Z,5.16
2022-10-07T05:33:52.171Z,5.13
2022-10-07T05:36:21.107Z,5.04
2022-10-07T05:38:49.739Z,5.03
2022-10-07T05:41:20.394Z,5.05
2022-10-07T05:43:50.279Z,5.07
2022-10-07T05:46:22.025Z,5.01
2022-10-07T05:48:53.039Z,5.00
2022-10-07T05:51:24.238Z,5.03
2022-10-07T05:53:57.676Z,5.06
2022-10-07T05:56:26.687Z,4.97
2022-10-07T05:58:57.375Z,4.95
2022-10-07T06:01:28.435Z,4.98
2022-10-07T06:03:58.798Z,5.03
2022-10-07T06:06:30.151Z,5.03
2022-10-07T06:09:18.867Z,5.00
2022-10-07T06:12:05.578Z,4.95
2022-10-07T06:14:35.654Z,5.01
2022-10-07T06:17:04.846Z,5.04
2022-10-07T06:19:33.347Z,5.02
2022-10-07T06:22:02.872Z,5.06
2022-10-07T06:24:33.897Z,5.07
2022-10-07T06:27:02.373Z,5.09
2022-10-07T06:29:31.416Z,5.07
2022-10-07T06:32:01.378Z,5.12
2022-10-07T06:34:30.921Z,5.13
2022-10-07T06:37:00.043Z,5.14
2022-10-07T06:39:28.538Z,5.19
2022-10-07T06:41:57.199Z,5.19
2022-10-07T06:44:25.776Z,5.20
2022-10-07T06:46:54.187Z,5.20
2022-10-07T06:49:24.781Z,5.23
2022-10-07T06:51:53.280Z,5.29
2022-10-07T06:54:21.734Z,5.33
2022-10-07T06:56:50.986Z,5.33
2022-10-07T06:59:19.508Z,5.34
2022-10-07T07:01:48.542Z,5.36
2022-10-07T07:04:17.109Z,5.39
2022-10-07T07:06:47.545Z,5.39
2022-10-07T07:09:16.021Z,5.39
2022-10-07T07:11:45.452Z,5.43
2022-10-07T07:14:14.832Z,5.46
2022-10-07T07:16:44.024Z,5.52
2022-10-07T07:19:14.706Z,5.49
2022-10-07T07:21:46.493Z,5.51
2022-10-07T07:24:18.257Z,5.58
2022-10-07T07:26:46.753Z,5.64
2022-10-07T07:29:16.557Z,5.68
2022-10-07T07:31:45.257Z,5.72
2022-10-07T07:34:15.658Z,5.76
2022-10-07T07:36:48.861Z,5.79
2022-10-07T07:39:20.276Z,5.80
2022-10-07T07:41:50.998Z,5.83
2022-10-07T07:44:21.061Z,5.86
2022-10-07T07:46:52.159Z,5.91
2022-10-07T07:49:23.685Z,5.97
2022-10-07T07:51:53.476Z,6.02
2022-10-07T07:54:25.028Z,6.07
2022-10-07T07:56:54.244Z,6.13
2022-10-07T07:59:24.374Z,6.18
2022-10-07T08:01:53.013Z,6.24
2022-10-07T08:04:21.588Z,6.28
2022-10-07T08:06:50.105Z,6.31
2022-10-07T08:09:18.628Z,6.35
2022-10-07T08:11:48.738Z,6.38
2022-10-07T08:14:18.464Z,6.43
2022-10-07T08:16:48.746Z,6.49
2022-10-07T08:19:18.109Z,6.56
2022-10-07T08:21:46.601Z,6.63
2022-10-07T08:24:15.206Z,6.68
2022-10-07T08:26:43.737Z,6.74
2022-10-07T08:29:15.267Z,6.79
2022-10-07T08:31:44.009Z,6.85
2022-10-07T08:34:13.217Z,6.93
2022-10-07T08:36:44.281Z,7.00
2022-10-07T08:39:13.312Z,7.04
2022-10-07T08:42:02.624Z,7.11
2022-10-07T08:44:38.638Z,7.18
2022-10-07T08:47:18.571Z,7.24
2022-10-07T08:50:04.474Z,7.32
2022-10-07T08:52:47.935Z,7.39
2022-10-07T08:55:24.280Z,7.46
2022-10-07T08:58:27.001Z,7.52
2022-10-07T09:01:08.439Z,7.60
2022-10-07T09:03:50.196Z,7.67
2022-10-07T09:06:33.619Z,7.73
2022-10-07T09:09:12.569Z,7.83
2022-10-07T09:11:45.354Z,7.89
2022-10-07T09:14:29.129Z,7.98
2022-10-07T09:17:08.987Z,8.04
2022-10-07T09:19:46.535Z,8.10
2022-10-07T09:22:22.096Z,8.16
2022-10-07T09:24:56.821Z,8.25
2022-10-07T09:27:26.910Z,8.33
2022-10-07T09:29:55.534Z,8.39
2022-10-07T09:32:25.475Z,8.47
2022-10-07T09:34:54.561Z,8.52
2022-10-07T09:37:26.681Z,8.60
2022-10-07T09:39:58.436Z,8.66
2022-10-07T09:42:35.677Z,8.74
2022-10-07T09:45:20.553Z,8.83
2022-10-07T09:47:55.305Z,8.93
2022-10-07T09:50:38.328Z,9.01
2022-10-07T09:53:19.366Z,9.09
2022-10-07T09:55:48.070Z,9.18
2022-10-07T09:58:25.576Z,9.26
2022-10-07T10:00:57.911Z,9.35
2022-10-07T10:03:35.231Z,9.44
2022-10-07T10:06:09.436Z,9.55
2022-10-07T10:08:41.202Z,9.63
2022-10-07T10:11:28.492Z,9.71
2022-10-07T10:13:57.179Z,9.80
2022-10-07T10:16:36.311Z,9.94
2022-10-07T10:19:23.865Z,10.04
2022-10-07T10:21:56.276Z,10.15
2022-10-07T10:24:40.703Z,10.42
2022-10-07T10:27:15.058Z,10.55
2022-10-07T10:29:58.383Z,10.74
2022-10-07T10:33:11.143Z,10.85
2022-10-07T10:35:55.951Z,11.05
2022-10-07T10:38:41.161Z,11.15
2022-10-07T10:41:27.710Z,11.26
2022-10-07T10:44:20.478Z,11.47
2022-10-07T10:47:02.912Z,11.54
2022-10-07T10:49:41.653Z,11.58
2022-10-07T10:52:46.052Z,11.67
2022-10-07T10:56:07.365Z,11.76
2022-10-07T10:58:55.644Z,11.90
2022-10-07T11:01:36.613Z,12.02
2022-10-07T11:04:31.833Z,12.10
2022-10-07T11:07:09.380Z,12.16
2022-10-07T11:09:46.858Z,12.23
2022-10-07T11:12:26.590Z,12.30
2022-10-07T11:15:02.142Z,12.38
2022-10-07T11:17:37.687Z,12.43
2022-10-07T11:20:20.493Z,12.52
2022-10-07T11:22:57.425Z,12.58
2022-10-07T11:25:37.646Z,12.66
2022-10-07T11:28:18.254Z,12.74
2022-10-07T11:31:01.020Z,12.77
2022-10-07T11:33:43.337Z,12.82
2022-10-07T11:36:19.877Z,12.93
2022-10-07T11:38:52.547Z,12.98
2022-10-07T11:41:32.814Z,13.03
2022-10-07T11:44:09.748Z,13.19
2022-10-07T11:46:46.231Z,13.30
2022-10-07T11:49:22.665Z,13.43
2022-10-07T11:52:00.766Z,13.56
2022-10-07T11:54:41.867Z,13.63
2022-10-07T11:57:22.916Z,13.74
2022-10-07T12:00:00.281Z,13.80
2022-10-07T12:02:53.721Z,13.93
2022-10-07T12:05:59.819Z,13.95
2022-10-07T12:08:34.189Z,14.02
2022-10-07T12:11:48.572Z,14.15
2022-10-07T12:14:44.939Z,14.18
2022-10-07T12:17:24.152Z,14.21
2022-10-07T12:20:46.757Z,14.27
2022-10-07T12:24:10.102Z,14.33
2022-10-07T12:26:50.057Z,14.37
2022-10-07T12:29:27.647Z,14.42
2022-10-07T12:31:57.939Z,14.54
2022-10-07T12:34:43.404Z,14.60
2022-10-07T12:37:50.482Z,14.64
2022-10-07T12:40:28.612Z,14.68
2022-10-07T12:43:10.922Z,14.79
2022-10-07T12:45:44.361Z,14.81
2022-10-07T12:48:21.672Z,14.85
2022-10-07T12:50:56.415Z,14.92
2022-10-07T12:53:30.621Z,14.98
2022-10-07T12:55:59.675Z,15.11
2022-10-07T12:59:22.501Z,15.24
2022-10-07T13:02:42.633Z,15.28
2022-10-07T13:06:10.706Z,15.28
2022-10-07T13:09:31.688Z,15.44
2022-10-07T13:12:33.127Z,15.47
2022-10-07T13:15:35.349Z,15.47
2022-10-07T13:18:16.757Z,15.53
2022-10-07T13:21:06.843Z,15.63
2022-10-07T13:23:36.184Z,15.59
2022-10-07T13:26:06.699Z,15.58
2022-10-07T13:28:46.559Z,15.62
2022-10-07T13:31:21.612Z,15.72
2022-10-07T13:33:51.998Z,15.72
2022-10-07T13:36:24.886Z,15.73
2022-10-07T13:38:55.672Z,15.74
2022-10-07T13:41:28.942Z,15.74
2022-10-07T13:44:03.627Z,15.79
2022-10-07T13:46:37.353Z,15.91
2022-10-07T13:49:06.573Z,15.99
2022-10-07T13:51:38.797Z,16.21
2022-10-07T13:54:20.408Z,16.37
2022-10-07T13:56:50.568Z,16.59
2022-10-07T13:59:22.086Z,16.94
2022-10-07T14:01:53.178Z,17.38
2022-10-07T14:04:26.831Z,17.76
2022-10-07T14:07:02.030Z,17.91
2022-10-07T14:09:50.058Z,18.00
2022-10-07T14:12:25.945Z,18.02
2022-10-07T14:15:03.289Z,17.85
2022-10-07T14:17:42.117Z,17.82
2022-10-07T14:20:22.629Z,17.82
2022-10-07T14:22:54.618Z,17.74
2022-10-07T14:25:28.706Z,17.81
2022-10-07T14:28:18.781Z,17.82
2022-10-07T14:31:26.185Z,17.85
2022-10-07T14:34:23.663Z,17.78
2022-10-07T14:37:09.271Z,17.80
2022-10-07T14:39:40.107Z,17.80
2022-10-07T14:42:16.494Z,17.79
2022-10-07T14:44:45.920Z,17.84
2022-10-07T14:47:17.764Z,17.77
2022-10-07T14:49:47.907Z,17.80
2022-10-07T14:52:28.249Z,17.80
2022-10-07T14:54:59.332Z,17.81
2022-10-07T14:57:27.997Z,17.75
2022-10-07T14:59:56.529Z,17.75
2022-10-07T15:02:25.110Z,17.73
2022-10-07T15:04:54.977Z,17.69
2022-10-07T15:07:23.728Z,17.62
2022-10-07T15:09:52.755Z,17.64
2022-10-07T15:12:21.395Z,17.71
2022-10-07T15:14:49.958Z,17.69
2022-10-07T15:17:18.584Z,17.74
2022-10-07T15:19:47.887Z,17.80
2022-10-07T15:22:18.210Z,17.75
2022-10-07T15:24:47.983Z,17.75
2022-10-07T15:27:19.333Z,17.67
2022-10-07T15:29:47.958Z,17.66
2022-10-07T15:32:16.632Z,17.62
2022-10-07T15:34:46.115Z,17.56
2022-10-07T15:37:15.882Z,17.51
2022-10-07T15:39:45.997Z,17.42
2022-10-07T15:42:15.573Z,17.27
2022-10-07T15:44:45.696Z,17.16
2022-10-07T15:47:17.717Z,17.06
2022-10-07T15:49:49.116Z,16.93
2022-10-07T15:52:17.927Z,16.87
2022-10-07T15:54:47.828Z,16.74
2022-10-07T15:57:16.379Z,16.62
2022-10-07T15:59:45.743Z,16.54
2022-10-07T16:02:17.076Z,16.48
2022-10-07T16:04:47.399Z,16.39
2022-10-07T16:07:16.924Z,16.32
2022-10-07T16:09:48.114Z,16.23
2022-10-07T16:12:17.029Z,16.16
2022-10-07T16:14:47.424Z,16.12
2022-10-07T16:17:15.933Z,16.04
2022-10-07T16:19:45.363Z,15.98
2022-10-07T16:22:15.033Z,15.87
2022-10-07T16:24:43.611Z,15.82
2022-10-07T16:27:13.775Z,15.76
2022-10-07T16:29:59.740Z,15.67
2022-10-07T16:32:28.179Z,15.57
2022-10-07T16:34:58.098Z,15.50
2022-10-07T16:37:26.754Z,15.42
2022-10-07T16:39:56.392Z,15.27
2022-10-07T16:42:28.910Z,15.24
2022-10-07T16:44:57.525Z,15.19
2022-10-07T16:47:26.089Z,15.15
2022-10-07T16:49:57.149Z,15.08
2022-10-07T16:52:26.313Z,14.97
2022-10-07T16:54:55.224Z,14.92
2022-10-07T16:57:25.236Z,14.89
2022-10-07T16:59:57.706Z,14.82
2022-10-07T17:02:26.963Z,14.74
2022-10-07T17:04:55.524Z,14.71
2022-10-07T17:07:24.485Z,14.59
2022-10-07T17:09:53.040Z,14.52
2022-10-07T17:12:21.960Z,14.50
2022-10-07T17:14:52.348Z,14.46
2022-10-07T17:17:22.059Z,14.40
2022-10-07T17:19:51.053Z,14.36
2022-10-07T17:22:22.404Z,14.35
2022-10-07T17:24:51.022Z,14.30
2022-10-07T17:27:20.587Z,14.24
2022-10-07T17:29:51.129Z,14.23
2022-10-07T17:32:19.685Z,14.17
2022-10-07T17:34:48.702Z,14.15
2022-10-07T17:37:17.913Z,14.09
2022-10-07T17:39:47.794Z,14.04
2022-10-07T17:42:16.384Z,13.92
2022-10-07T17:44:46.729Z,13.83
2022-10-07T17:47:16.615Z,13.81
2022-10-07T17:49:45.306Z,13.76
2022-10-07T17:52:14.426Z,13.71
2022-10-07T17:54:42.985Z,13.63
2022-10-07T17:57:11.461Z,13.55
2022-10-07T17:59:39.983Z,13.50
2022-10-07T18:02:10.477Z,13.45
2022-10-07T18:04:40.622Z,13.44
2022-10-07T18:07:09.174Z,13.41
2022-10-07T18:09:40.034Z,13.37
2022-10-07T18:12:25.912Z,13.39
2022-10-07T18:15:11.966Z,13.37
2022-10-07T18:17:40.807Z,13.33
2022-10-07T18:20:15.131Z,13.32
2022-10-07T18:22:44.749Z,13.28
2022-10-07T18:25:13.455Z,13.26
2022-10-07T18:27:44.034Z,13.22
2022-10-07T18:30:14.923Z,13.23
2022-10-07T18:32:43.462Z,13.19
2022-10-07T18:35:13.475Z,13.09
2022-10-07T18:37:41.897Z,13.02
2022-10-07T18:40:11.662Z,12.98
2022-10-07T18:42:41.874Z,13.01
2022-10-07T18:45:11.281Z,13.05
2022-10-07T18:47:39.814Z,13.04
2022-10-07T18:50:09.524Z,13.02
2022-10-07T18:52:40.237Z,12.95
2022-10-07T18:55:09.857Z,12.92
2022-10-07T18:57:38.367Z,12.87
2022-10-07T19:00:09.124Z,12.83
2022-10-07T19:02:38.393Z,12.83
2022-10-07T19:05:07.596Z,12.75
2022-10-07T19:07:36.350Z,12.65
2022-10-07T19:10:07.687Z,12.52
2022-10-07T19:12:53.613Z,12.45
2022-10-07T19:15:22.199Z,12.43
2022-10-07T19:17:50.689Z,12.38
2022-10-07T19:20:19.501Z,12.37
2022-10-07T19:22:48.927Z,12.35
2022-10-07T19:25:36.078Z,12.33
2022-10-07T19:28:07.646Z,12.27
2022-10-07T19:30:37.660Z,12.25
2022-10-07T19:33:07.438Z,12.17
2022-10-07T19:35:36.213Z,12.22
2022-10-07T19:38:06.114Z,12.22
2022-10-07T19:40:41.784Z,12.18
2022-10-07T19:43:11.647Z,12.09
2022-10-07T19:45:42.345Z,12.06
2022-10-07T19:48:14.815Z,12.05
2022-10-07T19:50:47.324Z,12.03
2022-10-07T19:53:16.776Z,11.90
2022-10-07T19:55:46.933Z,11.81
2022-10-07T19:58:15.933Z,11.75
2022-10-07T20:00:44.847Z,11.79
2022-10-07T20:03:13.513Z,11.81
2022-10-07T20:05:42.189Z,11.82
2022-10-07T20:08:13.509Z,11.83
2022-10-07T20:10:42.060Z,11.83
2022-10-07T20:13:12.080Z,11.75
2022-10-07T20:15:41.184Z,11.71
2022-10-07T20:18:10.002Z,11.65
2022-10-07T20:20:38.401Z,11.69
2022-10-07T20:23:06.877Z,11.71
2022-10-07T20:25:35.333Z,11.66
2022-10-07T20:28:03.853Z,11.66
2022-10-07T20:30:36.640Z,11.67
2022-10-07T20:33:06.452Z,11.67
2022-10-07T20:35:36.109Z,11.61
2022-10-07T20:38:04.588Z,11.54
2022-10-07T20:40:50.907Z,11.57
2022-10-07T20:43:19.458Z,11.57
2022-10-07T20:45:59.718Z,11.51
2022-10-07T20:48:31.757Z,11.49
2022-10-07T20:51:08.374Z,11.44
2022-10-07T20:53:37.083Z,11.42
2022-10-07T20:56:06.212Z,11.44
2022-10-07T20:58:35.114Z,11.38
2022-10-07T21:01:12.607Z,11.32
2022-10-07T21:03:41.603Z,11.35
2022-10-07T21:06:11.087Z,11.36
2022-10-07T21:08:40.770Z,11.34
2022-10-07T21:11:09.272Z,11.31
2022-10-07T21:13:38.615Z,11.24
2022-10-07T21:16:09.067Z,11.23
2022-10-07T21:18:38.795Z,11.24
2022-10-07T21:21:07.929Z,11.26
2022-10-07T21:23:36.450Z,11.23
2022-10-07T21:26:07.314Z,11.17
2022-10-07T21:28:37.841Z,11.16
2022-10-07T21:31:10.515Z,11.16
2022-10-07T21:33:40.536Z,11.17
2022-10-07T21:36:16.297Z,11.17
2022-10-07T21:38:46.992Z,11.15
2022-10-07T21:41:19.766Z,11.14
2022-10-07T21:43:52.952Z,11.12
2022-10-07T21:46:25.538Z,10.96
2022-10-07T21:48:57.830Z,10.99
2022-10-07T21:51:29.908Z,10.99
2022-10-07T21:54:00.165Z,10.96
2022-10-07T21:56:32.218Z,10.91
2022-10-07T21:59:03.828Z,10.91
2022-10-07T22:01:34.457Z,10.94
2022-10-07T22:04:04.818Z,10.99
2022-10-07T22:06:52.262Z,11.03
2022-10-07T22:09:21.524Z,11.04
2022-10-07T22:11:51.725Z,11.07
2022-10-07T22:14:20.384Z,11.07
2022-10-07T22:16:50.838Z,11.02
2022-10-07T22:19:19.500Z,11.01
2022-10-07T22:21:48.703Z,11.06
2022-10-07T22:24:17.242Z,11.09
2022-10-07T22:26:48.218Z,11.09
2022-10-07T22:29:19.701Z,11.09
2022-10-07T22:31:50.134Z,11.13
2022-10-07T22:34:35.550Z,11.17
2022-10-07T22:37:05.246Z,11.16
2022-10-07T22:39:34.450Z,11.17
2022-10-07T22:42:04.314Z,11.21
2022-10-07T22:44:33.424Z,11.21
2022-10-07T22:47:05.157Z,11.19
2022-10-07T22:49:34.041Z,11.19
2022-10-07T22:52:02.719Z,11.22
2022-10-07T22:54:31.342Z,11.26
2022-10-07T22:57:00.570Z,11.28
2022-10-07T22:59:28.971Z,11.28
2022-10-07T23:01:57.436Z,11.30
2022-10-07T23:04:27.272Z,11.32
2022-10-07T23:06:56.105Z,11.28
2022-10-07T23:09:24.538Z,11.28
2022-10-07T23:11:52.992Z,11.31
2022-10-07T23:14:21.583Z,11.31
2022-10-07T23:16:50.132Z,11.33
2022-10-07T23:19:18.680Z,11.36
2022-10-07T23:21:49.849Z,11.37
2022-10-07T23:24:18.997Z,11.38
2022-10-07T23:26:47.421Z,11.37
2022-10-07T23:29:16.020Z,11.31
2022-10-07T23:31:45.445Z,11.31
2022-10-07T23:34:14.230Z,11.22
2022-10-07T23:36:43.210Z,11.19
2022-10-07T23:39:13.604Z,11.19
2022-10-07T23:41:42.310Z,11.17
2022-10-07T23:44:11.881Z,11.16
2022-10-07T23:46:41.205Z,11.14
2022-10-07T23:49:09.744Z,11.09
2022-10-07T23:51:39.161Z,11.02
2022-10-07T23:54:08.141Z,10.96
2022-10-07T23:56:39.139Z,10.94
2022-10-07T23:59:08.906Z,10.90
